www.cux-wetter.de
Wetterdaten: Montag, 16.07.2012
Datum Zeit Temp. A. Feuchte A. Luftdruck Regen Wind Richtung Richtung Sonnenschein Solar Taupunkt Windchill Windben
16.07.2012 00:00 14,8 C 76 % 1014,5 hPa 0,0 l/m 21,6 km/h (4 Bft) NW 310 0 min 0 W/m 10,6 C 9,1 C 21,6 km/h (4 Bft)
16.07.2012 00:15 14,8 C 77 % 1014,5 hPa 0,0 l/m 21,1 km/h (4 Bft) NW 315 0 min 0 W/m 10,8 C 9,2 C 21,1 km/h (4 Bft)
16.07.2012 00:30 15,0 C 78 % 1014,5 hPa 0,0 l/m 16,5 km/h (3 Bft) NW 315 0 min 0 W/m 11,2 C 10,7 C 16,5 km/h (3 Bft)
16.07.2012 00:45 14,9 C 78 % 1014,5 hPa 0,0 l/m 19,7 km/h (3 Bft) NW 320 0 min 0 W/m 11,1 C 9,7 C 19,7 km/h (3 Bft)
16.07.2012 00:59 15,0 C 78 % 1014,5 hPa 0,0 l/m 20,0 km/h (4 Bft) NW 320 0 min 0 W/m 11,2 C 9,7 C 20,0 km/h (4 Bft)
16.07.2012 01:15 15,0 C 78 % 1014,5 hPa 0,0 l/m 28,1 km/h (5 Bft) NW 320 0 min 0 W/m 11,2 C 8,0 C 28,1 km/h (5 Bft)
16.07.2012 01:29 14,8 C 77 % 1014,5 hPa 0,0 l/m 19,2 km/h (3 Bft) NW 320 0 min 0 W/m 10,8 C 9,7 C 19,2 km/h (3 Bft)
16.07.2012 01:44 14,8 C 76 % 1014,5 hPa 0,0 l/m 23,1 km/h (4 Bft) NW 315 0 min 0 W/m 10,6 C 8,7 C 23,1 km/h (4 Bft)
16.07.2012 02:00 14,8 C 77 % 1014,5 hPa 0,0 l/m 23,8 km/h (4 Bft) N-NW 330 0 min 0 W/m 10,8 C 8,6 C 23,8 km/h (4 Bft)
16.07.2012 02:14 14,8 C 77 % 1014,5 hPa 0,0 l/m 24,0 km/h (4 Bft) N-NW 335 0 min 0 W/m 10,8 C 8,5 C 24,0 km/h (4 Bft)
16.07.2012 02:29 14,8 C 77 % 1015,5 hPa 0,0 l/m 19,7 km/h (3 Bft) NW 315 0 min 0 W/m 10,8 C 9,6 C 19,7 km/h (3 Bft)
16.07.2012 02:45 14,8 C 78 % 1015,5 hPa 0,0 l/m 24,6 km/h (4 Bft) NW 320 0 min 0 W/m 11,0 C 8,4 C 24,6 km/h (4 Bft)
16.07.2012 03:00 14,8 C 77 % 1015,5 hPa 0,0 l/m 22,7 km/h (4 Bft) NW 315 0 min 0 W/m 10,8 C 8,8 C 22,7 km/h (4 Bft)
16.07.2012 03:14 14,9 C 77 % 1015,5 hPa 0,0 l/m 26,9 km/h (4 Bft) NW 305 0 min 0 W/m 10,9 C 8,1 C 26,9 km/h (4 Bft)
16.07.2012 03:30 14,8 C 81 % 1015,5 hPa 0,0 l/m 25,6 km/h (4 Bft) W-NW 290 0 min 0 W/m 11,6 C 8,2 C 25,6 km/h (4 Bft)
16.07.2012 03:45 14,5 C 82 % 1015,5 hPa 0,0 l/m 23,4 km/h (4 Bft) W-NW 290 0 min 0 W/m 11,5 C 8,3 C 23,4 km/h (4 Bft)
16.07.2012 04:00 14,2 C 83 % 1015,5 hPa 0,0 l/m 21,1 km/h (4 Bft) W-NW 285 0 min 0 W/m 11,4 C 8,4 C 21,1 km/h (4 Bft)
16.07.2012 04:15 14,0 C 84 % 1015,5 hPa 0,0 l/m 20,8 km/h (4 Bft) W 280 0 min 0 W/m 11,3 C 8,2 C 20,8 km/h (4 Bft)
16.07.2012 04:30 13,9 C 86 % 1015,5 hPa 0,0 l/m 18,7 km/h (3 Bft) W 275 0 min 0 W/m 11,6 C 8,7 C 18,7 km/h (3 Bft)
16.07.2012 04:45 13,9 C 87 % 1015,5 hPa 0,0 l/m 23,0 km/h (4 Bft) W-NW 285 0 min 0 W/m 11,8 C 7,6 C 23,0 km/h (4 Bft)
16.07.2012 05:00 13,8 C 87 % 1015,5 hPa 0,0 l/m 20,7 km/h (4 Bft) W 275 0 min 0 W/m 11,7 C 8,0 C 20,7 km/h (4 Bft)
16.07.2012 05:15 13,7 C 87 % 1015,5 hPa 0,0 l/m 25,7 km/h (4 Bft) W-NW 285 0 min 0 W/m 11,6 C 6,7 C 25,7 km/h (4 Bft)
16.07.2012 05:30 13,6 C 87 % 1015,5 hPa 0,0 l/m 25,6 km/h (4 Bft) W 280 0 min 0 W/m 11,5 C 6,6 C 25,6 km/h (4 Bft)
16.07.2012 05:45 13,6 C 86 % 1015,5 hPa 0,0 l/m 20,2 km/h (4 Bft) W 275 0 min 0 W/m 11,3 C 7,9 C 20,2 km/h (4 Bft)
16.07.2012 06:00 13,6 C 85 % 1015,5 hPa 0,0 l/m 21,6 km/h (4 Bft) W 270 0 min 0 W/m 11,1 C 7,5 C 21,6 km/h (4 Bft)
16.07.2012 06:15 13,6 C 84 % 1015,5 hPa 0,0 l/m 20,9 km/h (4 Bft) W 270 0 min 0 W/m 10,9 C 7,7 C 20,9 km/h (4 Bft)
16.07.2012 06:30 13,6 C 83 % 1015,5 hPa 0,0 l/m 26,3 km/h (4 Bft) W 275 0 min 0 W/m 10,8 C 6,4 C 26,3 km/h (4 Bft)
16.07.2012 06:45 13,8 C 83 % 1015,5 hPa 0,0 l/m 26,3 km/h (4 Bft) W 280 0 min 0 W/m 11,0 C 6,7 C 26,3 km/h (4 Bft)
16.07.2012 07:00 13,8 C 85 % 1016,5 hPa 0,0 l/m 30,3 km/h (5 Bft) NW 305 0 min 0 W/m 11,3 C 5,9 C 30,3 km/h (5 Bft)
16.07.2012 07:15 13,6 C 82 % 1015,5 hPa 0,0 l/m 26,9 km/h (4 Bft) NW 305 0 min 0 W/m 10,6 C 6,3 C 26,9 km/h (4 Bft)
16.07.2012 07:29 13,7 C 80 % 1016,5 hPa 0,0 l/m 25,4 km/h (4 Bft) W 275 0 min 0 W/m 10,3 C 6,8 C 25,4 km/h (4 Bft)
16.07.2012 07:44 14,0 C 83 % 1016,5 hPa 0,0 l/m 20,6 km/h (4 Bft) W 275 0 min 0 W/m 11,2 C 8,3 C 20,6 km/h (4 Bft)
16.07.2012 08:00 14,2 C 84 % 1016,5 hPa 0,0 l/m 23,4 km/h (4 Bft) W 275 0 min 0 W/m 11,5 C 7,9 C 23,4 km/h (4 Bft)
16.07.2012 08:14 14,1 C 84 % 1016,5 hPa 0,0 l/m 33,9 km/h (5 Bft) W 280 0 min 0 W/m 11,4 C 5,8 C 33,9 km/h (5 Bft)
16.07.2012 08:29 14,3 C 84 % 1016,5 hPa 0,0 l/m 32,0 km/h (5 Bft) W 275 0 min 0 W/m 11,6 C 6,4 C 32,0 km/h (5 Bft)
16.07.2012 08:45 14,6 C 81 % 1016,5 hPa 0,0 l/m 26,8 km/h (4 Bft) W-NW 295 0 min 0 W/m 11,4 C 7,7 C 26,8 km/h (4 Bft)
16.07.2012 09:00 14,8 C 80 % 1016,5 hPa 0,0 l/m 32,2 km/h (5 Bft) W-NW 290 0 min 0 W/m 11,4 C 7,1 C 32,2 km/h (5 Bft)
16.07.2012 09:14 14,9 C 80 % 1016,5 hPa 0,0 l/m 35,7 km/h (5 Bft) W-NW 285 0 min 0 W/m 11,5 C 6,7 C 35,7 km/h (5 Bft)
16.07.2012 09:30 15,0 C 79 % 1016,5 hPa 0,0 l/m 29,1 km/h (5 Bft) W-NW 290 0 min 0 W/m 11,4 C 7,8 C 29,1 km/h (5 Bft)
16.07.2012 09:45 15,2 C 79 % 1016,5 hPa 0,0 l/m 27,0 km/h (5 Bft) W-NW 285 0 min 0 W/m 11,6 C 8,5 C 27,0 km/h (5 Bft)
16.07.2012 10:00 15,7 C 77 % 1016,5 hPa 0,0 l/m 28,8 km/h (5 Bft) W-NW 285 0 min 0 W/m 11,7 C 8,9 C 28,8 km/h (5 Bft)
16.07.2012 10:15 15,9 C 77 % 1016,5 hPa 0,0 l/m 34,5 km/h (5 Bft) W-NW 295 0 min 0 W/m 11,9 C 8,3 C 34,5 km/h (5 Bft)
16.07.2012 10:30 16,7 C 75 % 1016,5 hPa 0,0 l/m 30,4 km/h (5 Bft) W-NW 290 0 min 0 W/m 12,2 C 10,0 C 30,4 km/h (5 Bft)
16.07.2012 10:45 17,2 C 70 % 1016,5 hPa 0,0 l/m 30,7 km/h (5 Bft) W-NW 285 0 min 0 W/m 11,7 C 10,7 C 30,7 km/h (5 Bft)
16.07.2012 11:00 17,6 C 67 % 1016,5 hPa 0,0 l/m 30,9 km/h (5 Bft) W-NW 295 0 min 0 W/m 11,4 C 11,2 C 30,9 km/h (5 Bft)
16.07.2012 11:15 17,2 C 67 % 1016,5 hPa 0,0 l/m 35,8 km/h (5 Bft) NW 320 0 min 0 W/m 11,0 C 10,0 C 35,8 km/h (5 Bft)
16.07.2012 11:30 17,0 C 68 % 1016,5 hPa 0,0 l/m 35,2 km/h (5 Bft) NW 310 0 min 0 W/m 11,0 C 9,8 C 35,2 km/h (5 Bft)
16.07.2012 11:45 17,1 C 68 % 1016,5 hPa 0,0 l/m 28,3 km/h (5 Bft) W-NW 295 0 min 0 W/m 11,1 C 10,9 C 28,3 km/h (5 Bft)
16.07.2012 12:00 17,5 C 68 % 1016,5 hPa 0,0 l/m 33,6 km/h (5 Bft) NW 315 0 min 0 W/m 11,5 C 10,7 C 33,6 km/h (5 Bft)
16.07.2012 12:15 18,7 C 65 % 1017,5 hPa 0,0 l/m 30,2 km/h (5 Bft) NW 310 0 min 0 W/m 12,0 C 12,9 C 30,2 km/h (5 Bft)
16.07.2012 12:30 18,6 C 64 % 1017,5 hPa 0,0 l/m 31,5 km/h (5 Bft) NW 315 0 min 0 W/m 11,7 C 12,6 C 31,5 km/h (5 Bft)
16.07.2012 12:45 19,3 C 62 % 1016,5 hPa 0,0 l/m 29,2 km/h (5 Bft) NW 315 0 min 0 W/m 11,8 C 13,8 C 29,2 km/h (5 Bft)
16.07.2012 12:59 18,4 C 63 % 1017,5 hPa 0,0 l/m 26,4 km/h (4 Bft) NW 310 0 min 0 W/m 11,2 C 13,0 C 26,4 km/h (4 Bft)
16.07.2012 13:15 19,8 C 62 % 1017,5 hPa 0,0 l/m 30,5 km/h (5 Bft) NW 315 0 min 0 W/m 12,3 C 14,4 C 30,5 km/h (5 Bft)
16.07.2012 13:30 19,2 C 59 % 1017,5 hPa 0,0 l/m 36,3 km/h (5 Bft) NW 310 0 min 0 W/m 11,0 C 12,9 C 36,3 km/h (5 Bft)
16.07.2012 13:44 16,2 C 71 % 1017,5 hPa 0,6 l/m 32,9 km/h (5 Bft) NW 320 0 min 0 W/m 10,9 C 8,9 C 32,9 km/h (5 Bft)
16.07.2012 13:59 16,2 C 73 % 1017,5 hPa 0,0 l/m 25,6 km/h (4 Bft) NW 305 0 min 0 W/m 11,4 C 10,1 C 25,6 km/h (4 Bft)
16.07.2012 14:15 16,8 C 73 % 1016,5 hPa 0,0 l/m 30,7 km/h (5 Bft) NW 320 0 min 0 W/m 11,9 C 10,1 C 30,7 km/h (5 Bft)
16.07.2012 14:29 16,9 C 73 % 1017,5 hPa 0,0 l/m 25,5 km/h (4 Bft) W-NW 295 0 min 0 W/m 12,0 C 11,1 C 25,5 km/h (4 Bft)
16.07.2012 14:44 17,2 C 73 % 1017,5 hPa 0,0 l/m 24,9 km/h (4 Bft) NW 310 0 min 0 W/m 12,3 C 11,6 C 24,9 km/h (4 Bft)
16.07.2012 15:00 18,3 C 72 % 1017,5 hPa 0,0 l/m 29,0 km/h (5 Bft) NW 320 0 min 0 W/m 13,2 C 12,5 C 29,0 km/h (5 Bft)
16.07.2012 15:14 18,8 C 67 % 1017,5 hPa 0,0 l/m 35,8 km/h (5 Bft) NW 320 0 min 0 W/m 12,5 C 12,4 C 35,8 km/h (5 Bft)
16.07.2012 15:29 19,0 C 64 % 1017,5 hPa 0,0 l/m 33,2 km/h (5 Bft) N-NW 330 0 min 0 W/m 12,0 C 12,9 C 33,2 km/h (5 Bft)
16.07.2012 15:45 19,2 C 64 % 1016,5 hPa 0,0 l/m 31,1 km/h (5 Bft) NW 320 0 min 0 W/m 12,2 C 13,5 C 31,1 km/h (5 Bft)
16.07.2012 16:00 19,6 C 65 % 1016,5 hPa 0,0 l/m 29,5 km/h (5 Bft) N-NW 330 0 min 0 W/m 12,8 C 14,2 C 29,5 km/h (5 Bft)
16.07.2012 16:15 19,7 C 65 % 1016,5 hPa 0,0 l/m 28,6 km/h (5 Bft) NW 310 0 min 0 W/m 12,9 C 14,5 C 28,6 km/h (5 Bft)
16.07.2012 16:30 19,8 C 65 % 1016,5 hPa 0,0 l/m 29,8 km/h (5 Bft) N-NW 330 0 min 0 W/m 13,0 C 14,5 C 29,8 km/h (5 Bft)
16.07.2012 16:45 19,1 C 66 % 1016,5 hPa 0,0 l/m 25,7 km/h (4 Bft) N-NW 330 0 min 0 W/m 12,6 C 14,1 C 25,7 km/h (4 Bft)
16.07.2012 17:00 18,8 C 67 % 1016,5 hPa 0,0 l/m 20,9 km/h (4 Bft) NW 310 0 min 0 W/m 12,5 C 14,5 C 20,9 km/h (4 Bft)
16.07.2012 17:15 18,9 C 68 % 1016,5 hPa 0,0 l/m 26,2 km/h (4 Bft) N-NW 330 0 min 0 W/m 12,9 C 13,7 C 26,2 km/h (4 Bft)
16.07.2012 17:30 18,8 C 67 % 1016,5 hPa 0,0 l/m 29,7 km/h (5 Bft) NW 325 0 min 0 W/m 12,5 C 13,1 C 29,7 km/h (5 Bft)
16.07.2012 17:45 18,7 C 68 % 1016,5 hPa 0,0 l/m 24,1 km/h (4 Bft) NW 325 0 min 0 W/m 12,7 C 13,8 C 24,1 km/h (4 Bft)
16.07.2012 18:00 18,4 C 69 % 1015,5 hPa 0,0 l/m 27,0 km/h (5 Bft) NW 325 0 min 0 W/m 12,6 C 12,9 C 27,0 km/h (5 Bft)
16.07.2012 18:15 18,1 C 70 % 1015,5 hPa 0,0 l/m 25,0 km/h (4 Bft) NW 325 0 min 0 W/m 12,5 C 12,8 C 25,0 km/h (4 Bft)
16.07.2012 18:30 17,9 C 72 % 1015,5 hPa 0,0 l/m 25,7 km/h (4 Bft) N-NW 330 0 min 0 W/m 12,8 C 12,4 C 25,7 km/h (4 Bft)
16.07.2012 18:45 17,0 C 76 % 1015,5 hPa 0,0 l/m 33,9 km/h (5 Bft) N-NW 330 0 min 0 W/m 12,7 C 10,0 C 33,9 km/h (5 Bft)
16.07.2012 19:00 16,3 C 77 % 1015,5 hPa 0,3 l/m 23,7 km/h (4 Bft) NW 325 0 min 0 W/m 12,3 C 10,6 C 23,7 km/h (4 Bft)
16.07.2012 19:15 16,0 C 77 % 1015,5 hPa 0,0 l/m 21,9 km/h (4 Bft) N-NW 335 0 min 0 W/m 12,0 C 10,6 C 21,9 km/h (4 Bft)
16.07.2012 19:30 16,1 C 78 % 1015,5 hPa 0,0 l/m 14,8 km/h (3 Bft) N-NW 330 0 min 0 W/m 12,3 C 12,6 C 14,8 km/h (3 Bft)
16.07.2012 19:45 15,9 C 79 % 1014,5 hPa 0,0 l/m 17,5 km/h (3 Bft) NW 325 0 min 0 W/m 12,3 C 11,6 C 17,5 km/h (3 Bft)
16.07.2012 19:59 15,7 C 82 % 1014,5 hPa 0,3 l/m 14,1 km/h (3 Bft) NW 315 0 min 0 W/m 12,6 C 12,3 C 14,1 km/h (3 Bft)
16.07.2012 20:15 14,9 C 84 % 1015,5 hPa 3,3 l/m 25,0 km/h (4 Bft) W-NW 295 0 min 0 W/m 12,2 C 8,5 C 25,0 km/h (4 Bft)
16.07.2012 20:30 14,7 C 85 % 1014,5 hPa 0,3 l/m 17,2 km/h (3 Bft) NW 310 0 min 0 W/m 12,2 C 10,1 C 17,2 km/h (3 Bft)
16.07.2012 20:44 15,0 C 87 % 1014,5 hPa 0,3 l/m 23,6 km/h (4 Bft) W 275 0 min 0 W/m 12,9 C 8,9 C 23,6 km/h (4 Bft)
16.07.2012 20:59 15,0 C 88 % 1014,5 hPa 0,0 l/m 22,1 km/h (4 Bft) W 275 0 min 0 W/m 13,0 C 9,2 C 22,1 km/h (4 Bft)
16.07.2012 21:15 14,9 C 89 % 1014,5 hPa 0,0 l/m 21,8 km/h (4 Bft) W 275 0 min 0 W/m 13,1 C 9,2 C 21,8 km/h (4 Bft)
16.07.2012 21:29 14,8 C 89 % 1014,5 hPa 0,0 l/m 25,2 km/h (4 Bft) W 265 0 min 0 W/m 13,0 C 8,3 C 25,2 km/h (4 Bft)
16.07.2012 21:44 14,8 C 89 % 1014,5 hPa 0,3 l/m 26,3 km/h (4 Bft) W 265 0 min 0 W/m 13,0 C 8,1 C 26,3 km/h (4 Bft)
16.07.2012 22:00 14,8 C 90 % 1014,5 hPa 0,0 l/m 24,6 km/h (4 Bft) W-NW 290 0 min 0 W/m 13,2 C 8,4 C 24,6 km/h (4 Bft)
16.07.2012 22:15 14,8 C 90 % 1014,5 hPa 0,0 l/m 20,1 km/h (4 Bft) W 265 0 min 0 W/m 13,2 C 9,5 C 20,1 km/h (4 Bft)
16.07.2012 22:30 14,8 C 90 % 1014,5 hPa 0,3 l/m 19,3 km/h (3 Bft) W 270 0 min 0 W/m 13,2 C 9,7 C 19,3 km/h (3 Bft)
16.07.2012 22:45 14,8 C 90 % 1014,5 hPa 0,0 l/m 17,3 km/h (3 Bft) W 275 0 min 0 W/m 13,2 C 10,2 C 17,3 km/h (3 Bft)
16.07.2012 23:00 14,8 C 91 % 1013,5 hPa 0,3 l/m 19,5 km/h (3 Bft) W 280 0 min 0 W/m 13,3 C 9,6 C 19,5 km/h (3 Bft)
16.07.2012 23:15 14,6 C 90 % 1013,5 hPa 0,0 l/m 15,5 km/h (3 Bft) W 265 0 min 0 W/m 13,0 C 10,5 C 15,5 km/h (3 Bft)
16.07.2012 23:30 14,6 C 90 % 1013,5 hPa 0,0 l/m 15,3 km/h (3 Bft) W 260 0 min 0 W/m 13,0 C 10,6 C 15,3 km/h (3 Bft)
16.07.2012 23:45 14,5 C 90 % 1013,5 hPa 0,0 l/m 14,3 km/h (3 Bft) W 260 0 min 0 W/m 12,9 C 10,8 C 14,3 km/h (3 Bft)
_ Min-Zeit 05:30 13:30 23:00 - 19:59 - - - - 07:29 08:14 19:59
Minimum _ 13,6 C 59 % 1013,5 hPa - 14,1 km/h (3 Bft) - - - - 10,3 C 5,8 C 14,1 km/h (3 Bft)
_ Max-Zeit 13:15 23:00 12:15 20:15 13:30 - - 00:00 00:00 23:00 17:00 13:30
Maximum _ 19,8 C 91 % 1017,5 hPa 3,3 l/m 36,3 km/h
NW (5 Bft)
- - 0 min 0 W/m 13,3 C 14,5 C 36,3 km/h
NW (5 Bft)
Durchschnitt _ 15,9 C 77 % 1015,8 hPa #6,0 l/m 25,5 km/h (4 Bft) NW - #0 min. 0 W/m 11,9 C 9,9 C 25,5 km/h (4 Bft)
copyright by Holger Just